createdAt,value
2022-09-12T00:00:04.724Z,60.71
2022-09-12T00:05:08.434Z,59.90
2022-09-12T00:10:07.154Z,59.91
2022-09-12T00:15:04.456Z,58.94
2022-09-12T00:20:04.034Z,58.48
2022-09-12T00:25:01.205Z,59.26
2022-09-12T00:29:58.593Z,60.15
2022-09-12T00:34:55.276Z,60.12
2022-09-12T00:39:51.973Z,60.63
2022-09-12T00:44:49.797Z,60.53
2022-09-12T00:49:48.428Z,60.49
2022-09-12T00:54:47.688Z,60.96
2022-09-12T00:59:46.891Z,62.58
2022-09-12T01:04:44.376Z,62.22
2022-09-12T01:09:42.771Z,62.59
2022-09-12T01:14:40.660Z,61.81
2022-09-12T01:19:52.323Z,61.59
2022-09-12T01:24:54.677Z,61.87
2022-09-12T01:30:04.171Z,62.62
2022-09-12T01:35:05.199Z,63.16
2022-09-12T01:40:07.037Z,63.37
2022-09-12T01:45:08.232Z,63.67
2022-09-12T01:50:07.089Z,64.21
2022-09-12T01:55:09.745Z,64.30
2022-09-12T02:00:10.089Z,64.56
2022-09-12T02:05:17.342Z,64.72
2022-09-12T02:10:15.905Z,64.47
2022-09-12T02:15:12.756Z,65.78
2022-09-12T02:20:25.891Z,65.93
2022-09-12T02:25:31.364Z,68.01
2022-09-12T02:30:31.272Z,67.17
2022-09-12T02:35:33.370Z,68.13
2022-09-12T02:40:30.395Z,69.50
2022-09-12T02:45:31.702Z,70.44
2022-09-12T02:50:28.719Z,70.05
2022-09-12T02:55:25.899Z,70.23
2022-09-12T03:00:23.572Z,69.80
2022-09-12T03:05:24.782Z,70.75
2022-09-12T03:10:24.704Z,70.78
2022-09-12T03:15:28.954Z,70.70
2022-09-12T03:20:32.982Z,69.38
2022-09-12T03:25:33.552Z,69.37
2022-09-12T03:30:30.442Z,70.84
2022-09-12T03:35:27.083Z,71.32
2022-09-12T03:40:24.345Z,72.97
2022-09-12T03:45:21.421Z,72.67
2022-09-12T03:50:18.028Z,72.45
2022-09-12T03:55:14.777Z,73.61
2022-09-12T04:00:16.403Z,74.83
2022-09-12T04:05:15.820Z,74.99
2022-09-12T04:10:12.428Z,74.18
2022-09-12T04:15:09.577Z,74.38
2022-09-12T04:20:07.257Z,74.31
2022-09-12T04:25:06.929Z,74.01
2022-09-12T04:30:03.941Z,75.57
2022-09-12T04:35:00.449Z,76.41
2022-09-12T04:39:58.768Z,75.82
2022-09-12T04:44:55.638Z,75.78
2022-09-12T04:49:52.483Z,75.48
2022-09-12T04:54:55.820Z,74.83
2022-09-12T04:59:53.173Z,75.29
2022-09-12T05:04:49.909Z,74.90
2022-09-12T05:11:24.776Z,74.76
2022-09-12T05:15:14.608Z,74.43
2022-09-12T05:20:12.359Z,74.32
2022-09-12T05:25:09.619Z,74.62
2022-09-12T05:30:07.016Z,73.75
2022-09-12T05:35:06.435Z,73.90
2022-09-12T05:40:07.076Z,73.07
2022-09-12T05:45:04.341Z,72.26
2022-09-12T05:50:01.256Z,72.67
2022-09-12T05:55:00.606Z,71.37
2022-09-12T05:59:58.614Z,70.45
2022-09-12T06:05:00.226Z,68.87
2022-09-12T06:09:58.698Z,68.25
2022-09-12T06:14:56.298Z,66.07
2022-09-12T06:19:53.026Z,67.46
2022-09-12T06:24:49.789Z,66.29
2022-09-12T06:29:46.673Z,66.36
2022-09-12T06:34:47.994Z,65.27
2022-09-12T06:39:44.861Z,66.20
2022-09-12T06:44:41.554Z,65.80
2022-09-12T06:49:38.276Z,65.42
2022-09-12T06:54:37.876Z,64.81
2022-09-12T06:59:34.789Z,63.64
2022-09-12T07:04:33.280Z,60.58
2022-09-12T07:09:30.311Z,60.20
2022-09-12T07:14:50.597Z,57.64
2022-09-12T07:19:54.942Z,58.28
2022-09-12T07:24:55.289Z,58.25
2022-09-12T07:29:51.992Z,57.93
2022-09-12T07:34:50.539Z,58.18
2022-09-12T07:39:48.035Z,58.50
2022-09-12T07:44:45.093Z,59.17
2022-09-12T07:49:44.554Z,58.78
2022-09-12T07:54:41.302Z,58.49
2022-09-12T08:06:23.323Z,57.42
2022-09-12T08:11:21.347Z,57.09
2022-09-12T08:16:21.966Z,58.06
2022-09-12T08:21:22.650Z,56.86
2022-09-12T08:26:22.940Z,56.86
2022-09-12T08:31:23.407Z,56.41
2022-09-12T08:36:23.991Z,55.88
2022-09-12T08:41:23.802Z,53.70
2022-09-12T08:46:22.920Z,52.45
2022-09-12T08:51:20.770Z,53.74
2022-09-12T08:56:21.664Z,52.49
2022-09-12T09:01:23.602Z,52.33
2022-09-12T09:06:26.286Z,51.65
2022-09-12T09:11:37.666Z,51.57
2022-09-12T09:16:43.733Z,50.14
2022-09-12T09:21:43.030Z,48.23
2022-09-12T09:26:45.483Z,47.38
2022-09-12T09:31:42.339Z,48.55
2022-09-12T09:36:46.703Z,47.50
2022-09-12T09:41:54.428Z,45.92
2022-09-12T09:46:55.596Z,44.39
2022-09-12T09:51:54.856Z,44.82
2022-09-12T09:56:54.958Z,43.95
2022-09-12T10:01:54.462Z,44.86
2022-09-12T10:06:57.850Z,42.54
2022-09-12T10:11:56.543Z,43.19
2022-09-12T10:16:53.298Z,41.39
2022-09-12T10:21:52.980Z,41.67
2022-09-12T10:26:56.709Z,41.37
2022-09-12T10:31:56.111Z,40.52
2022-09-12T10:36:54.060Z,40.25
2022-09-12T10:41:50.815Z,39.28
2022-09-12T10:46:51.211Z,39.11
2022-09-12T10:51:51.536Z,39.87
2022-09-12T10:56:56.541Z,39.85
2022-09-12T11:02:00.712Z,39.52
2022-09-12T11:07:05.050Z,39.40
2022-09-12T11:12:08.698Z,39.65
2022-09-12T11:17:13.550Z,39.11
2022-09-12T11:22:20.354Z,39.86
2022-09-12T11:27:30.863Z,39.94
2022-09-12T11:32:44.777Z,39.07
2022-09-12T11:37:59.935Z,37.67
2022-09-12T11:43:00.795Z,38.50
2022-09-12T11:47:59.487Z,38.87
2022-09-12T11:53:02.676Z,38.02
2022-09-12T11:58:00.288Z,37.80
2022-09-12T12:03:02.742Z,36.41
2022-09-12T12:08:00.560Z,38.36
2022-09-12T12:12:58.941Z,35.37
2022-09-12T12:18:06.971Z,34.24
2022-09-12T12:23:05.602Z,34.90
2022-09-12T12:28:05.003Z,35.49
2022-09-12T12:33:26.542Z,34.05
2022-09-12T12:38:40.083Z,34.26
2022-09-12T12:54:58.632Z,32.72
2022-09-12T13:00:21.492Z,31.40
2022-09-12T13:05:20.911Z,32.26
2022-09-12T13:10:23.451Z,31.78
2022-09-12T13:16:01.256Z,31.19
2022-09-12T13:21:13.527Z,31.12
2022-09-12T13:26:12.357Z,31.77
2022-09-12T13:31:12.574Z,31.18
2022-09-12T13:36:43.784Z,31.79
2022-09-12T13:41:51.086Z,32.08
2022-09-12T13:46:48.514Z,31.97
2022-09-12T13:51:45.328Z,32.07
2022-09-12T13:56:47.937Z,31.90
2022-09-12T14:01:45.943Z,33.08
2022-09-12T14:06:58.111Z,33.77
2022-09-12T14:11:56.237Z,34.35
2022-09-12T14:16:54.316Z,33.93
2022-09-12T14:21:52.699Z,34.12
2022-09-12T14:26:51.468Z,35.30
2022-09-12T14:31:59.783Z,35.30
2022-09-12T14:36:57.274Z,35.49
2022-09-12T14:49:00.684Z,33.83
2022-09-12T14:53:59.027Z,33.82
2022-09-12T14:59:22.855Z,33.84
2022-09-12T15:04:34.402Z,34.50
2022-09-12T15:09:43.908Z,35.57
2022-09-12T15:14:43.488Z,34.68
2022-09-12T15:19:41.406Z,36.34
2022-09-12T15:24:39.414Z,39.50
2022-09-12T15:29:36.244Z,40.97
2022-09-12T15:34:34.156Z,41.14
2022-09-12T15:39:30.905Z,41.15
2022-09-12T15:44:28.220Z,42.30
2022-09-12T15:49:33.886Z,40.31
2022-09-12T15:54:32.948Z,40.20
2022-09-12T15:59:30.522Z,40.38
2022-09-12T16:04:27.896Z,39.78
2022-09-12T16:09:24.657Z,39.37
2022-09-12T16:14:23.038Z,40.03
2022-09-12T16:19:21.553Z,40.06
2022-09-12T16:24:18.300Z,40.57
2022-09-12T16:29:15.063Z,40.64
2022-09-12T16:34:16.529Z,40.22
2022-09-12T16:39:16.336Z,40.18
2022-09-12T16:44:13.165Z,40.08
2022-09-12T16:49:10.344Z,40.59
2022-09-12T16:54:07.135Z,40.48
2022-09-12T16:59:09.175Z,40.52
2022-09-12T17:04:06.209Z,40.98
2022-09-12T17:10:04.057Z,42.22
2022-09-12T17:15:05.937Z,44.18
2022-09-12T17:20:05.114Z,48.32
2022-09-12T17:25:01.875Z,58.02
2022-09-12T17:29:58.522Z,57.95
2022-09-12T17:35:23.750Z,54.32
2022-09-12T17:40:32.612Z,56.59
2022-09-12T17:45:38.134Z,55.42
2022-09-12T17:50:38.834Z,56.05
2022-09-12T17:55:43.090Z,58.33
2022-09-12T18:01:00.433Z,61.35
2022-09-12T18:05:57.102Z,65.16
2022-09-12T18:10:54.454Z,66.42
2022-09-12T18:15:51.352Z,66.30
2022-09-12T18:20:51.263Z,66.30
2022-09-12T18:25:48.277Z,67.66
2022-09-12T18:30:45.597Z,67.63
2022-09-12T18:35:42.412Z,65.89
2022-09-12T18:40:39.322Z,64.88
2022-09-12T18:45:36.079Z,65.74
2022-09-12T18:50:33.547Z,63.83
2022-09-12T18:55:30.408Z,61.58
2022-09-12T19:00:27.259Z,60.44
2022-09-12T19:05:24.089Z,61.41
2022-09-12T19:10:21.513Z,61.21
2022-09-12T19:15:21.023Z,61.27
2022-09-12T19:20:18.089Z,62.14
2022-09-12T19:25:14.941Z,59.94
2022-09-12T19:30:12.633Z,58.65
2022-09-12T19:35:12.268Z,60.84
2022-09-12T19:40:09.356Z,61.98
2022-09-12T19:45:06.806Z,61.73
2022-09-12T19:50:04.942Z,61.70
2022-09-12T19:55:01.620Z,60.27
2022-09-12T19:59:58.327Z,60.42
2022-09-12T20:04:55.075Z,60.99
2022-09-12T20:09:52.472Z,60.46
2022-09-12T20:14:49.140Z,58.89
2022-09-12T20:19:46.001Z,60.36
2022-09-12T20:24:42.826Z,61.48
2022-09-12T20:29:40.412Z,61.14
2022-09-12T20:34:37.114Z,60.54
2022-09-12T20:39:33.832Z,59.79
2022-09-12T20:44:30.538Z,60.15
2022-09-12T20:49:27.964Z,58.69
2022-09-12T20:54:24.972Z,59.02
2022-09-12T20:59:21.929Z,59.64
2022-09-12T21:04:18.838Z,59.63
2022-09-12T21:09:16.370Z,60.98
2022-09-12T21:14:16.212Z,59.07
2022-09-12T21:19:13.368Z,56.71
2022-09-12T21:24:13.031Z,54.70
2022-09-12T21:29:10.477Z,52.90
2022-09-12T21:34:07.035Z,52.58
2022-09-12T21:39:04.320Z,53.00
2022-09-12T21:44:01.247Z,53.30
2022-09-12T21:49:00.519Z,52.57
2022-09-12T21:53:57.092Z,52.79
2022-09-12T21:58:55.451Z,53.97
2022-09-12T22:03:52.543Z,53.87
2022-09-12T22:08:49.816Z,55.18
2022-09-12T22:13:46.362Z,54.63
2022-09-12T22:18:42.883Z,55.14
2022-09-12T22:23:59.678Z,55.63
2022-09-12T22:28:56.864Z,56.53
2022-09-12T22:33:54.118Z,57.13
2022-09-12T22:38:50.746Z,57.47
2022-09-12T22:43:47.433Z,57.61
2022-09-12T22:48:45.105Z,57.67
2022-09-12T22:53:41.961Z,59.14
2022-09-12T22:58:38.533Z,59.59
2022-09-12T23:03:35.672Z,60.82
2022-09-12T23:08:33.591Z,62.65
2022-09-12T23:13:30.405Z,61.59
2022-09-12T23:18:27.364Z,60.80
2022-09-12T23:23:23.847Z,60.58
2022-09-12T23:28:22.066Z,60.90
2022-09-12T23:33:18.580Z,60.84
2022-09-12T23:38:15.196Z,60.65
2022-09-12T23:43:11.787Z,61.29
2022-09-12T23:48:09.174Z,60.50
2022-09-12T23:53:06.442Z,59.93
2022-09-12T23:58:03.003Z,59.67
